Time;durP1;ratioP1;P1;durP2;ratioP2;P2;SDS_P1;SDS_P2;PMS_P1;PMS_P2;Temp;Humidity;BMP_temperature;BMP_pressure;BME280_temperature;BME280_humidity;BME280_pressure;Samples;Min_cycle;Max_cycle;Signal;HPM_P1;HPM_P2
2023/12/03 00:02:04;;;;;;;28.90;15.90;;;;;;;1.25;100.00;99069.20;107837;1256;59728;-70
2023/12/03 00:04:32;;;;;;;27.30;15.30;;;;;;;1.25;100.00;99059.00;107970;1257;71946;-71
2023/12/03 00:07:00;;;;;;;29.90;15.90;;;;;;;1.29;100.00;99058.52;107779;1262;72458;-71
2023/12/03 00:09:28;;;;;;;26.50;14.80;;;;;;;1.31;100.00;99069.40;107939;1257;71396;-71
2023/12/03 00:11:55;;;;;;;27.40;15.50;;;;;;;1.32;100.00;99056.15;107906;1258;59956;-70
2023/12/03 00:14:23;;;;;;;26.80;14.80;;;;;;;1.31;100.00;99044.51;107964;1258;59365;-70
2023/12/03 00:16:51;;;;;;;29.80;16.50;;;;;;;1.30;100.00;99030.13;107808;1257;73005;-71
2023/12/03 00:19:19;;;;;;;27.50;15.50;;;;;;;1.29;100.00;99025.13;107905;1257;72765;-72
2023/12/03 00:21:46;;;;;;;27.40;16.00;;;;;;;1.30;100.00;99015.39;107874;1260;71408;-71
2023/12/03 00:24:14;;;;;;;24.70;13.30;;;;;;;1.31;100.00;99013.15;107770;1257;61042;-70
2023/12/03 00:26:42;;;;;;;28.60;16.50;;;;;;;1.32;100.00;99027.95;107954;1260;60266;-69
2023/12/03 00:29:12;;;;;;;25.70;14.70;;;;;;;1.33;100.00;99037.97;107887;1260;73075;-70
2023/12/03 00:31:40;;;;;;;25.70;14.80;;;;;;;1.36;100.00;99031.02;108024;1257;71599;-71
2023/12/03 00:34:08;;;;;;;26.70;14.60;;;;;;;1.36;100.00;99019.41;107848;1257;71514;-70
2023/12/03 00:36:36;;;;;;;26.10;15.10;;;;;;;1.33;100.00;99022.50;108005;1256;60855;-70
2023/12/03 00:39:04;;;;;;;30.90;15.90;;;;;;;1.31;100.00;99035.61;108008;1256;59548;-70
2023/12/03 00:41:31;;;;;;;25.00;14.80;;;;;;;1.31;100.00;99047.27;107963;1257;73056;-69
2023/12/03 00:43:59;;;;;;;24.30;14.60;;;;;;;1.31;100.00;99040.45;107983;1256;72051;-70
2023/12/03 00:46:27;;;;;;;26.00;15.00;;;;;;;1.34;100.00;99029.40;107954;1258;71262;-70
2023/12/03 00:48:55;;;;;;;25.60;14.20;;;;;;;1.35;100.00;99023.75;92764;1257;10002246;-70
2023/12/03 00:51:23;;;;;;;25.50;15.40;;;;;;;1.37;100.00;99020.84;100305;1257;10001424;-70
2023/12/03 00:53:50;;;;;;;24.90;14.30;;;;;;;1.37;100.00;99019.16;108422;1258;71857;-70
2023/12/03 00:56:18;;;;;;;25.80;14.70;;;;;;;1.39;100.00;99004.41;107720;1257;70519;-71
2023/12/03 00:58:46;;;;;;;24.80;14.80;;;;;;;1.38;100.00;98989.21;107695;1260;72970;-70
2023/12/03 01:01:13;;;;;;;27.80;16.30;;;;;;;1.37;100.00;98984.70;107744;1257;59665;-71
2023/12/03 01:03:41;;;;;;;24.00;14.80;;;;;;;1.38;100.00;98981.92;107814;1257;60353;-70
2023/12/03 01:06:09;;;;;;;28.60;16.50;;;;;;;1.39;100.00;98982.86;107764;1260;71810;-70
2023/12/03 01:08:37;;;;;;;25.40;16.10;;;;;;;1.41;100.00;98989.35;107749;1257;72847;-70
2023/12/03 01:11:06;;;;;;;26.70;15.40;;;;;;;1.44;100.00;99000.98;107787;1257;71432;-70
2023/12/03 01:13:34;;;;;;;24.30;15.10;;;;;;;1.48;100.00;99024.58;107818;1257;61859;-69
2023/12/03 01:16:04;;;;;;;26.20;15.30;;;;;;;1.55;100.00;99045.66;107719;1257;60242;-69
2023/12/03 01:18:32;;;;;;;26.40;15.50;;;;;;;1.60;100.00;99079.17;107818;1257;71840;-70
2023/12/03 01:21:00;;;;;;;24.10;14.80;;;;;;;1.69;100.00;99092.16;108010;1257;71192;-70
2023/12/03 01:23:28;;;;;;;27.40;16.10;;;;;;;1.72;100.00;99113.30;107862;1260;72647;-69
2023/12/03 01:25:55;;;;;;;29.20;17.70;;;;;;;1.77;100.00;99100.53;107933;1257;60830;-70
2023/12/03 01:28:23;;;;;;;25.70;15.80;;;;;;;1.85;100.00;99104.81;107862;1256;61197;-69
2023/12/03 01:30:52;;;;;;;26.10;15.70;;;;;;;1.94;100.00;99097.90;107916;1257;73088;-69
2023/12/03 01:33:19;;;;;;;26.80;16.50;;;;;;;2.03;100.00;99089.48;107911;1256;72641;-69
2023/12/03 01:35:47;;;;;;;25.60;14.50;;;;;;;2.11;100.00;99084.08;107953;1257;71613;-70
2023/12/03 01:38:15;;;;;;;27.00;16.00;;;;;;;2.15;100.00;99094.33;107895;1257;59972;-69
2023/12/03 01:40:53;;;;;;;28.80;17.20;;;;;;;2.15;100.00;99100.39;107972;1256;59528;-69
2023/12/03 01:43:20;;;;;;;26.90;15.20;;;;;;;2.24;100.00;99105.27;107913;1256;73137;-69
2023/12/03 01:45:48;;;;;;;27.40;16.50;;;;;;;2.25;100.00;99091.01;107939;1257;71499;-70
2023/12/03 01:48:16;;;;;;;26.20;15.10;;;;;;;2.22;100.00;99094.80;107859;1260;71432;-69
2023/12/03 01:50:44;;;;;;;24.80;14.70;;;;;;;2.22;100.00;99080.69;107820;1257;60886;-70
2023/12/03 01:53:12;;;;;;;23.30;13.20;;;;;;;2.21;100.00;99034.73;107895;1257;59231;-69
2023/12/03 01:55:40;;;;;;;31.70;17.30;;;;;;;2.12;100.00;99016.30;107858;1257;72262;-68
2023/12/03 01:58:07;;;;;;;29.50;17.60;;;;;;;2.03;100.00;99023.38;107686;1257;72832;-70
2023/12/03 02:00:35;;;;;;;26.00;15.50;;;;;;;2.02;100.00;98993.98;107803;1257;72652;-70
2023/12/03 02:03:08;;;;;;;30.90;17.00;;;;;;;2.03;100.00;98981.77;107777;1257;60843;-70
2023/12/03 02:05:35;;;;;;;27.00;15.10;;;;;;;2.04;100.00;98997.42;107997;1256;59243;-68
2023/12/03 02:08:04;;;;;;;26.50;16.30;;;;;;;2.08;100.00;99004.08;107938;1257;72092;-68
2023/12/03 02:10:31;;;;;;;28.10;16.90;;;;;;;2.08;100.00;99014.46;107993;1257;72781;-68
2023/12/03 02:12:59;;;;;;;27.80;16.10;;;;;;;2.10;100.00;99016.28;107896;1256;71428;-68
2023/12/03 02:15:27;;;;;;;28.50;16.50;;;;;;;2.16;100.00;99024.42;107906;1257;59630;-69
2023/12/03 02:17:55;;;;;;;29.10;17.10;;;;;;;2.20;100.00;99035.66;107949;1256;59547;-69
2023/12/03 02:20:23;;;;;;;30.20;18.10;;;;;;;2.29;100.00;99044.45;108055;1256;72134;-69
2023/12/03 02:22:58;;;;;;;27.10;16.10;;;;;;;2.39;100.00;99054.23;107921;1257;72534;-69
2023/12/03 02:25:26;;;;;;;30.70;17.10;;;;;;;2.44;100.00;99053.21;107926;1257;72478;-69
2023/12/03 02:27:54;;;;;;;28.10;16.10;;;;;;;2.48;100.00;99050.91;107927;1257;59627;-70
2023/12/03 02:30:21;;;;;;;28.70;16.50;;;;;;;2.52;100.00;99039.05;107957;1256;59375;-69
2023/12/03 02:32:49;;;;;;;28.70;17.10;;;;;;;2.55;100.00;99031.72;107942;1260;73466;-70
2023/12/03 02:35:18;;;;;;;28.80;16.30;;;;;;;2.57;100.00;99016.94;107978;1257;71813;-70
2023/12/03 02:37:46;;;;;;;25.50;16.00;;;;;;;2.54;100.00;99001.51;107939;1256;71452;-70
2023/12/03 02:40:14;;;;;;;24.30;14.80;;;;;;;2.46;100.00;98980.14;107898;1256;59636;-69
2023/12/03 02:42:42;;;;;;;25.80;15.50;;;;;;;2.36;100.00;98959.33;107939;1260;59763;-68
2023/12/03 02:45:10;;;;;;;25.60;15.40;;;;;;;2.22;100.00;98962.88;107943;1257;72534;-69
2023/12/03 02:47:38;;;;;;;24.30;14.90;;;;;;;2.12;100.00;98956.52;107837;1257;72633;-68
2023/12/03 02:50:08;;;;;;;25.80;15.00;;;;;;;2.07;100.00;98930.80;107914;1257;70974;-69
2023/12/03 02:52:35;;;;;;;29.10;17.70;;;;;;;1.99;100.00;98942.63;107994;1258;60973;-69
2023/12/03 02:55:07;;;;;;;26.70;15.70;;;;;;;1.99;100.00;98939.35;107850;1260;60348;-69
2023/12/03 02:57:35;;;;;;;;;;;;;;;2.05;100.00;98934.50;108029;1256;73867;-68
2023/12/03 03:00:08;;;;;;;26.20;14.20;;;;;;;2.05;100.00;98919.13;107832;1257;71655;-69
2023/12/03 03:02:36;;;;;;;27.80;16.50;;;;;;;2.02;100.00;98912.03;107904;1257;71709;-68
2023/12/03 03:05:05;;;;;;;25.20;14.60;;;;;;;1.97;100.00;98896.69;107928;1257;60922;-68
2023/12/03 03:07:33;;;;;;;24.10;14.10;;;;;;;1.92;100.00;98876.45;107915;1257;60548;-68
2023/12/03 03:10:08;;;;;;;24.50;15.30;;;;;;;1.86;100.00;98888.52;107824;1257;73895;-68
2023/12/03 03:12:57;;;;;;;28.20;15.90;;;;;;;1.81;100.00;98908.51;107903;1256;72761;-68
2023/12/03 03:15:25;;;;;;;28.00;16.40;;;;;;;1.88;100.00;98904.91;107951;1256;72652;-68
2023/12/03 03:17:53;;;;;;;26.20;15.70;;;;;;;1.93;100.00;98923.38;107820;1257;60897;-69
2023/12/03 03:20:23;;;;;;;24.00;14.90;;;;;;;2.02;100.00;98945.89;107955;1256;60229;-69
2023/12/03 03:22:51;;;;;;;25.10;15.20;;;;;;;2.11;100.00;98977.41;107970;1257;73894;-69
2023/12/03 03:25:19;;;;;;;24.80;15.00;;;;;;;2.15;100.00;99015.88;107899;1257;72900;-69
2023/12/03 03:27:47;;;;;;;21.10;12.30;;;;;;;2.11;100.00;98991.92;107843;1256;72727;-69
2023/12/03 03:30:15;;;;;;;27.10;15.00;;;;;;;2.09;100.00;99005.98;107931;1257;61057;-68
2023/12/03 03:32:43;;;;;;;28.80;17.30;;;;;;;2.06;100.00;98985.13;107905;1256;60516;-70
2023/12/03 03:35:10;;;;;;;29.50;17.20;;;;;;;2.07;100.00;98973.25;107851;1260;73898;-69
2023/12/03 03:37:38;;;;;;;29.10;15.80;;;;;;;2.10;100.00;98988.25;107865;1257;71071;-69
2023/12/03 03:40:07;;;;;;;30.70;16.70;;;;;;;2.11;100.00;98996.65;107963;1256;71920;-69
2023/12/03 03:42:34;;;;;;;28.40;16.70;;;;;;;2.13;100.00;98984.82;107926;1256;60863;-69
2023/12/03 03:45:03;;;;;;;28.20;16.80;;;;;;;2.19;100.00;98989.75;107883;1257;60204;-69
2023/12/03 03:47:31;;;;;;;28.20;16.30;;;;;;;2.23;100.00;99011.54;107884;1257;72558;-68
2023/12/03 03:49:59;;;;;;;32.80;19.30;;;;;;;2.22;100.00;99018.05;108059;1257;71391;-68
2023/12/03 03:52:26;;;;;;;32.90;19.00;;;;;;;2.20;100.00;99005.20;107877;1257;71428;-68
2023/12/03 03:54:54;;;;;;;30.00;17.00;;;;;;;2.23;100.00;98994.31;107865;1256;60313;-68
2023/12/03 03:57:21;;;;;;;32.40;18.10;;;;;;;2.31;100.00;98997.90;107931;1256;60320;-69
2023/12/03 03:59:49;;;;;;;30.70;17.70;;;;;;;2.36;100.00;98994.44;107855;1257;73876;-69
2023/12/03 04:02:17;;;;;;;30.30;17.70;;;;;;;2.38;100.00;98986.14;107882;1255;71499;-68
2023/12/03 04:04:44;;;;;;;31.20;17.70;;;;;;;2.44;100.00;98981.27;107860;1256;72749;-70
2023/12/03 04:07:13;;;;;;;27.10;16.40;;;;;;;2.50;100.00;98984.47;107997;1256;59772;-69
2023/12/03 04:09:40;;;;;;;27.70;16.20;;;;;;;2.54;100.00;99003.08;107998;1257;60204;-68
2023/12/03 04:12:09;;;;;;;28.20;16.40;;;;;;;2.57;100.00;99020.36;107905;1256;71703;-69
2023/12/03 04:14:36;;;;;;;28.50;16.50;;;;;;;2.55;100.00;99009.10;107815;1256;71223;-68
2023/12/03 04:17:04;;;;;;;25.30;15.10;;;;;;;2.56;100.00;99023.07;107881;1256;71418;-68
2023/12/03 04:19:32;;;;;;;28.50;17.30;;;;;;;2.51;100.00;99026.49;107849;1256;60181;-69
2023/12/03 04:22:00;;;;;;;26.70;15.10;;;;;;;2.45;100.00;99023.88;107855;1255;60367;-69
2023/12/03 04:24:29;;;;;;;26.40;15.30;;;;;;;2.40;100.00;99031.55;107913;1257;72745;-69
2023/12/03 04:26:57;;;;;;;29.70;16.80;;;;;;;2.31;100.00;99034.79;107878;1256;71638;-69
2023/12/03 04:29:24;;;;;;;29.20;17.40;;;;;;;2.29;100.00;99032.02;107856;1257;71380;-67
2023/12/03 04:31:52;;;;;;;29.50;17.30;;;;;;;2.29;100.00;99022.65;107833;1256;60905;-69
2023/12/03 04:34:20;;;;;;;29.00;16.60;;;;;;;2.35;100.00;99018.34;107781;1256;60203;-69
2023/12/03 04:36:48;;;;;;;23.40;13.20;;;;;;;2.38;100.00;99024.18;107828;1256;72746;-69
2023/12/03 04:39:15;;;;;;;25.70;14.10;;;;;;;2.39;100.00;99040.75;107916;1259;71607;-68
2023/12/03 04:41:43;;;;;;;26.90;15.70;;;;;;;2.36;100.00;99047.33;107825;1257;72142;-69
2023/12/03 04:44:11;;;;;;;26.50;15.80;;;;;;;2.31;100.00;99041.05;107777;1257;60931;-69
2023/12/03 04:46:41;;;;;;;26.00;14.70;;;;;;;2.31;100.00;99028.61;107781;1256;60346;-69
2023/12/03 04:49:08;;;;;;;26.70;15.70;;;;;;;2.34;100.00;99024.34;107870;1257;73943;-69
2023/12/03 04:51:36;;;;;;;26.70;15.40;;;;;;;2.39;100.00;99022.32;107860;1257;71608;-68
2023/12/03 04:54:04;;;;;;;24.80;14.60;;;;;;;2.44;100.00;99021.38;107804;1256;72447;-69
2023/12/03 04:56:32;;;;;;;20.70;12.60;;;;;;;2.49;100.00;99034.20;107852;1257;60443;-68
2023/12/03 04:58:59;;;;;;;22.40;13.60;;;;;;;2.51;100.00;99032.49;107802;1256;60466;-70
2023/12/03 05:01:27;;;;;;;20.50;12.50;;;;;;;2.57;100.00;99040.96;107862;1256;73114;-70
2023/12/03 05:03:55;;;;;;;21.90;12.90;;;;;;;2.61;100.00;99050.63;107847;1257;72704;-68
2023/12/03 05:06:23;;;;;;;21.00;12.10;;;;;;;2.61;100.00;99048.27;107845;1257;71379;-69
2023/12/03 05:08:52;;;;;;;20.70;12.50;;;;;;;2.61;100.00;99046.15;107953;1256;59563;-69
2023/12/03 05:11:19;;;;;;;19.70;11.90;;;;;;;2.61;100.00;99043.88;108032;1257;60427;-69
2023/12/03 05:13:47;;;;;;;16.60;10.50;;;;;;;2.58;100.00;99046.30;107818;1257;72647;-68
2023/12/03 05:16:15;;;;;;;19.40;11.70;;;;;;;2.51;100.00;99045.42;107846;1256;71259;-69
2023/12/03 05:18:42;;;;;;;16.50;10.80;;;;;;;2.42;100.00;99047.34;107683;1257;71459;-69
2023/12/03 05:21:11;;;;;;;17.80;10.90;;;;;;;2.37;100.00;99047.67;108181;1256;60453;-70
2023/12/03 05:23:39;;;;;;;16.80;10.30;;;;;;;2.35;100.00;99042.11;108082;1257;60299;-68
2023/12/03 05:26:06;;;;;;;15.60;10.50;;;;;;;2.35;100.00;99044.38;107915;1256;72637;-69
2023/12/03 05:28:34;;;;;;;16.30;10.20;;;;;;;2.35;100.00;99035.80;107955;1256;72889;-69
2023/12/03 05:31:03;;;;;;;14.10;8.50;;;;;;;2.37;100.00;99041.92;107800;1256;72714;-70
2023/12/03 05:33:31;;;;;;;16.50;9.80;;;;;;;2.39;100.00;99052.29;107821;1257;61030;-69
2023/12/03 05:35:59;;;;;;;13.50;8.50;;;;;;;2.41;100.00;99061.45;107829;1258;60341;-68
2023/12/03 05:38:27;;;;;;;14.70;9.60;;;;;;;2.43;100.00;99066.95;108242;1256;73370;-69
2023/12/03 05:40:54;;;;;;;15.20;9.80;;;;;;;2.46;100.00;99065.42;107769;1257;72581;-70
2023/12/03 05:43:22;;;;;;;15.20;9.60;;;;;;;2.49;100.00;99077.54;107986;1256;71218;-70
2023/12/03 05:45:50;;;;;;;14.60;9.70;;;;;;;2.50;100.00;99084.73;108030;1256;60877;-69
2023/12/03 05:48:18;;;;;;;14.20;9.50;;;;;;;2.51;100.00;99092.17;107870;1256;60408;-68
2023/12/03 05:50:46;;;;;;;15.50;10.30;;;;;;;2.54;100.00;99097.90;108009;1256;72538;-69
2023/12/03 05:53:13;;;;;;;15.40;10.20;;;;;;;2.57;100.00;99098.17;107780;1257;71386;-68
2023/12/03 05:55:41;;;;;;;14.40;9.70;;;;;;;2.60;100.00;99108.39;107949;1257;71808;-69
2023/12/03 05:58:09;;;;;;;13.80;9.20;;;;;;;2.63;100.00;99108.36;107785;1257;61025;-68
2023/12/03 06:00:37;;;;;;;15.60;10.20;;;;;;;2.66;100.00;99107.79;107847;1257;60218;-69
2023/12/03 06:03:05;;;;;;;14.80;9.60;;;;;;;2.68;100.00;99115.35;107859;1255;72569;-68
2023/12/03 06:05:33;;;;;;;14.40;8.90;;;;;;;2.70;100.00;99117.51;107930;1257;72163;-68
2023/12/03 06:08:00;;;;;;;14.50;10.00;;;;;;;2.69;100.00;99114.57;107872;1257;72632;-68
2023/12/03 06:10:30;;;;;;;14.50;10.10;;;;;;;2.68;100.00;99120.16;107879;1256;60428;-66
2023/12/03 06:12:58;;;;;;;16.10;10.70;;;;;;;2.67;100.00;99134.02;108165;1256;60325;-67
2023/12/03 06:15:26;;;;;;;15.50;9.50;;;;;;;2.68;100.00;99147.05;107853;1256;73891;-67
2023/12/03 06:17:53;;;;;;;17.10;10.00;;;;;;;2.70;100.00;99151.13;107844;1255;72314;-67
2023/12/03 06:20:21;;;;;;;16.60;10.40;;;;;;;2.68;100.00;99154.38;107886;1256;71432;-68
2023/12/03 06:22:49;;;;;;;15.00;9.90;;;;;;;2.67;100.00;99163.86;107872;1256;60393;-66
2023/12/03 06:25:17;;;;;;;13.70;9.40;;;;;;;2.69;100.00;99169.58;107844;1260;60227;-67
2023/12/03 06:27:45;;;;;;;14.50;10.00;;;;;;;2.73;100.00;99175.23;107870;1257;72346;-66
2023/12/03 06:30:14;;;;;;;14.00;9.00;;;;;;;2.78;100.00;99172.41;108030;1257;70857;-66
2023/12/03 06:32:41;;;;;;;12.80;9.10;;;;;;;2.81;100.00;99171.30;107785;1256;71450;-66
2023/12/03 06:35:11;;;;;;;13.90;9.30;;;;;;;2.82;100.00;99164.25;107760;1257;60448;-67
2023/12/03 06:37:39;;;;;;;15.40;10.00;;;;;;;2.83;100.00;99169.23;107804;1256;60336;-66
2023/12/03 06:40:08;;;;;;;13.90;9.40;;;;;;;2.84;100.00;99175.05;107801;1256;72127;-67
2023/12/03 06:42:35;;;;;;;14.40;9.40;;;;;;;2.86;100.00;99182.54;107863;1255;71375;-66
2023/12/03 06:45:04;;;;;;;15.20;9.50;;;;;;;2.89;100.00;99183.77;107877;1255;71928;-66
2023/12/03 06:47:32;;;;;;;14.10;9.20;;;;;;;2.90;100.00;99182.29;108015;1256;60542;-66
2023/12/03 06:49:59;;;;;;;14.10;9.60;;;;;;;2.92;100.00;99195.46;107874;1256;60214;-66
2023/12/03 06:52:27;;;;;;;13.60;9.70;;;;;;;2.93;100.00;99203.23;107854;1257;73868;-66
2023/12/03 06:54:55;;;;;;;16.20;10.10;;;;;;;2.93;100.00;99212.48;107780;1256;72669;-68
2023/12/03 06:57:22;;;;;;;14.20;9.50;;;;;;;2.95;100.00;99215.77;107899;1257;71316;-69
2023/12/03 06:59:50;;;;;;;14.90;9.80;;;;;;;2.97;100.00;99212.27;107832;1257;60217;-69
2023/12/03 07:02:18;;;;;;;13.60;9.80;;;;;;;2.98;100.00;99215.08;107817;1255;60021;-69
2023/12/03 07:04:46;;;;;;;15.90;9.70;;;;;;;2.98;100.00;99208.80;107806;1257;72117;-69
2023/12/03 07:07:15;;;;;;;15.00;9.40;;;;;;;2.97;100.00;99216.39;107775;1257;73156;-68
2023/12/03 07:09:43;;;;;;;14.70;9.60;;;;;;;2.97;100.00;99219.08;107828;1256;72689;-68
2023/12/03 07:12:11;;;;;;;14.40;9.40;;;;;;;2.98;100.00;99218.23;107857;1256;60878;-70
2023/12/03 07:14:39;;;;;;;15.50;9.20;;;;;;;2.99;100.00;99220.05;107786;1262;61050;-70
2023/12/03 07:17:07;;;;;;;15.30;9.10;;;;;;;2.98;100.00;99229.75;107795;1257;73025;-71
2023/12/03 07:19:35;;;;;;;14.30;8.90;;;;;;;3.00;100.00;99235.84;108006;1259;71674;-71
2023/12/03 07:22:03;;;;;;;13.20;8.40;;;;;;;3.02;100.00;99235.35;107896;1256;71207;-71
2023/12/03 07:24:31;;;;;;;11.10;7.70;;;;;;;3.04;100.00;99236.76;107864;1256;60425;-71
2023/12/03 07:26:59;;;;;;;10.50;7.40;;;;;;;3.06;100.00;99243.23;107881;1257;60752;-72
2023/12/03 07:29:26;;;;;;;9.20;6.20;;;;;;;3.08;100.00;99257.86;107918;1257;71618;-72
2023/12/03 07:31:54;;;;;;;9.10;6.30;;;;;;;3.10;100.00;99241.96;107838;1257;72910;-72
2023/12/03 07:34:22;;;;;;;9.00;6.00;;;;;;;3.11;100.00;99266.04;108056;1259;71170;-72
2023/12/03 07:36:50;;;;;;;8.90;6.30;;;;;;;3.12;100.00;99265.27;107959;1255;62473;-71
2023/12/03 07:39:18;;;;;;;9.20;5.30;;;;;;;3.11;100.00;99265.25;107843;1256;60304;-71
2023/12/03 07:41:50;;;;;;;8.80;5.90;;;;;;;3.14;100.00;99273.00;107820;1256;72670;-71
2023/12/03 07:44:18;;;;;;;7.70;5.20;;;;;;;3.14;100.00;99270.52;107807;1257;73181;-71
2023/12/03 07:46:45;;;;;;;7.40;4.80;;;;;;;3.14;100.00;99271.48;107842;1256;71287;-72
2023/12/03 07:49:13;;;;;;;8.10;5.20;;;;;;;3.19;100.00;99271.66;107794;1258;60313;-72
2023/12/03 07:51:47;;;;;;;7.90;4.60;;;;;;;3.22;100.00;99266.70;107874;1256;60443;-72
2023/12/03 07:54:16;;;;;;;7.10;4.70;;;;;;;3.24;100.00;99272.63;108039;1256;73934;-72
2023/12/03 07:56:44;;;;;;;7.50;5.30;;;;;;;3.25;100.00;99278.15;107886;1256;72719;-72
2023/12/03 07:59:11;;;;;;;6.90;4.60;;;;;;;3.28;100.00;99288.36;107848;1257;71451;-72
2023/12/03 08:01:39;;;;;;;5.50;3.60;;;;;;;3.29;100.00;99302.09;108008;1256;61106;-72
2023/12/03 08:04:07;;;;;;;6.20;3.90;;;;;;;3.29;100.00;99309.23;107898;1257;60402;-71
2023/12/03 08:06:35;;;;;;;5.00;3.50;;;;;;;3.29;100.00;99319.21;107943;1256;72651;-72
2023/12/03 08:09:03;;;;;;;5.10;3.40;;;;;;;3.33;100.00;99313.56;107918;1257;71616;-73
2023/12/03 08:11:31;;;;;;;5.20;3.30;;;;;;;3.35;99.99;99314.17;108038;1257;74934;-71
2023/12/03 08:13:59;;;;;;;5.70;4.00;;;;;;;3.34;99.28;99319.39;107852;1256;60908;-74
2023/12/03 08:16:27;;;;;;;5.80;3.70;;;;;;;3.34;98.44;99323.56;107896;1256;59258;-72
2023/12/03 08:18:55;;;;;;;5.20;3.30;;;;;;;3.31;97.65;99323.30;107907;1258;75398;-71
2023/12/03 08:21:23;;;;;;;5.20;3.40;;;;;;;3.29;97.24;99322.79;107945;1256;73247;-72
2023/12/03 08:23:52;;;;;;;5.20;3.20;;;;;;;3.27;96.57;99322.30;107845;1260;72430;-74
2023/12/03 08:26:22;;;;;;;4.80;3.20;;;;;;;3.26;94.81;99329.14;108058;1255;61099;-75
2023/12/03 08:29:06;;;;;;;4.60;3.10;;;;;;;3.28;94.39;99336.34;107847;1256;62920;-72
2023/12/03 08:31:36;;;;;;;4.10;2.70;;;;;;;3.26;93.33;99340.61;107780;1257;71886;-73
2023/12/03 08:34:12;;;;;;;5.30;3.30;;;;;;;3.26;92.72;99346.77;108024;1257;75496;-69
2023/12/03 08:36:47;;;;;;;5.00;3.50;;;;;;;3.25;92.09;99351.39;107900;1256;72763;-74
2023/12/03 08:39:23;;;;;;;4.30;2.70;;;;;;;3.23;91.71;99351.41;107921;1257;60424;-70
2023/12/03 08:41:53;;;;;;;4.40;3.00;;;;;;;3.20;90.64;99350.36;108005;1256;60979;-71
2023/12/03 08:44:32;;;;;;;4.90;3.00;;;;;;;3.20;89.96;99357.43;107927;1256;72679;-71
2023/12/03 08:47:00;;;;;;;4.80;3.10;;;;;;;3.23;89.92;99365.07;107918;1255;72748;-72
2023/12/03 08:49:29;;;;;;;5.50;3.10;;;;;;;3.23;89.62;99371.61;107879;1257;72702;-71
2023/12/03 08:51:59;;;;;;;5.00;3.10;;;;;;;3.22;88.87;99375.73;107836;1257;59635;-73
2023/12/03 08:54:48;;;;;;;4.60;3.00;;;;;;;3.23;88.59;99379.65;107853;1256;60292;-71
2023/12/03 08:57:36;;;;;;;5.10;3.70;;;;;;;3.28;88.60;99393.45;107850;1259;73518;-72
2023/12/03 09:00:08;;;;;;;11.30;7.00;;;;;;;3.30;88.31;99398.86;107862;1261;71752;-71
2023/12/03 09:02:36;;;;;;;7.90;5.90;;;;;;;3.27;87.90;99409.17;107954;1257;71218;-73
2023/12/03 09:05:13;;;;;;;6.60;4.80;;;;;;;3.22;87.15;99411.29;107836;1256;61011;-72
2023/12/03 09:08:03;;;;;;;6.20;3.60;;;;;;;3.14;85.31;99405.08;107863;1257;60031;-71
2023/12/03 09:10:31;;;;;;;6.70;3.80;;;;;;;3.00;82.52;99440.23;107879;1256;72842;-70
2023/12/03 09:12:59;;;;;;;7.80;4.40;;;;;;;2.91;81.05;99424.73;107962;1257;71826;-71
2023/12/03 09:15:27;;;;;;;6.20;4.30;;;;;;;2.84;80.64;99443.86;108218;1256;72703;-71
2023/12/03 09:17:55;;;;;;;6.70;4.70;;;;;;;2.81;80.37;99435.16;107907;1257;61422;-70
2023/12/03 09:20:23;;;;;;;6.70;4.40;;;;;;;2.77;80.19;99443.24;107955;1256;62049;-69
2023/12/03 09:22:51;;;;;;;7.40;5.30;;;;;;;2.70;79.99;99438.61;107925;1256;73852;-71
2023/12/03 09:25:18;;;;;;;6.70;4.60;;;;;;;2.67;79.96;99446.30;107905;1257;74955;-74
2023/12/03 09:27:46;;;;;;;8.10;5.50;;;;;;;2.65;79.59;99429.71;107856;1257;71548;-69
2023/12/03 09:30:14;;;;;;;8.30;5.20;;;;;;;2.62;79.73;99446.48;107951;1258;59643;-71
2023/12/03 09:32:42;;;;;;;8.40;5.60;;;;;;;2.58;79.88;99449.39;107932;1256;60437;-69
2023/12/03 09:35:10;;;;;;;7.60;5.50;;;;;;;2.54;80.17;99450.05;107965;1256;71417;-70
2023/12/03 09:37:38;;;;;;;9.10;6.60;;;;;;;2.47;80.33;99461.06;107948;1256;71951;-70
2023/12/03 09:40:06;;;;;;;10.30;6.70;;;;;;;2.44;81.13;99485.37;108014;1257;71916;-70
2023/12/03 09:42:35;;;;;;;10.00;6.80;;;;;;;2.40;81.71;99496.64;107899;1260;60423;-70
2023/12/03 09:45:06;;;;;;;11.40;7.30;;;;;;;2.33;82.31;99501.09;107885;1256;60358;-73
2023/12/03 09:47:35;;;;;;;10.40;7.00;;;;;;;2.24;82.60;99493.66;107923;1257;72593;-70
2023/12/03 09:50:04;;;;;;;11.20;7.20;;;;;;;2.17;82.38;99504.80;107930;1257;72910;-69
2023/12/03 09:52:36;;;;;;;11.00;7.10;;;;;;;2.07;81.99;99517.71;107895;1256;72649;-72
2023/12/03 09:55:04;;;;;;;12.20;7.40;;;;;;;2.02;81.89;99521.05;107889;1257;60463;-67
2023/12/03 09:57:32;;;;;;;11.80;6.90;;;;;;;1.94;80.99;99517.89;107915;1256;60036;-72
2023/12/03 10:00:06;;;;;;;10.60;6.80;;;;;;;1.90;80.97;99532.92;107789;1256;73173;-70
2023/12/03 10:02:37;;;;;;;10.20;5.90;;;;;;;1.83;80.93;99537.96;108088;1257;73014;-69
2023/12/03 10:05:06;;;;;;;10.90;7.00;;;;;;;1.78;80.17;99530.95;107872;1257;71353;-69
2023/12/03 10:07:33;;;;;;;12.30;7.20;;;;;;;1.76;80.05;99556.58;107974;1256;61246;-69
2023/12/03 10:10:01;;;;;;;10.70;7.10;;;;;;;1.72;79.78;99544.56;107853;1256;60447;-70
2023/12/03 10:12:37;;;;;;;11.40;7.80;;;;;;;1.67;79.14;99569.83;107915;1257;72847;-69
2023/12/03 10:15:06;;;;;;;12.30;7.60;;;;;;;1.63;79.16;99581.61;107809;1256;72737;-68
2023/12/03 10:17:33;;;;;;;13.30;8.40;;;;;;;1.57;78.41;99568.20;107903;1256;71701;-68
2023/12/03 10:20:21;;;;;;;10.80;7.10;;;;;;;1.56;77.70;99583.89;107930;1257;59788;-67
2023/12/03 10:22:49;;;;;;;11.10;7.40;;;;;;;1.50;77.09;99596.88;107924;1256;60338;-69
2023/12/03 10:25:34;;;;;;;13.80;8.40;;;;;;;1.47;77.41;99589.95;107911;1257;72658;-67
2023/12/03 10:28:03;;;;;;;13.20;8.70;;;;;;;1.40;77.61;99603.30;108002;1257;71608;-69
2023/12/03 10:30:31;;;;;;;13.60;8.60;;;;;;;1.39;77.93;99615.99;107925;1260;71204;-70
2023/12/03 10:32:59;;;;;;;11.60;8.10;;;;;;;1.37;77.77;99622.58;107890;1257;60470;-69
2023/12/03 10:35:32;;;;;;;11.20;7.20;;;;;;;1.37;77.47;99621.15;107968;1255;60371;-70
2023/12/03 10:38:00;;;;;;;12.40;7.70;;;;;;;1.32;76.11;99621.21;107884;1256;72645;-70
2023/12/03 10:40:28;;;;;;;12.60;8.10;;;;;;;1.30;76.23;99614.59;107946;1256;71408;-67
2023/12/03 10:42:55;;;;;;;12.80;8.40;;;;;;;1.28;75.91;99628.21;107341;1257;433866;-68
2023/12/03 10:45:24;;;;;;;11.90;7.60;;;;;;;1.27;75.73;99614.50;107651;1256;60457;-68
2023/12/03 10:47:51;;;;;;;13.90;8.50;;;;;;;1.26;75.61;99639.30;107664;1257;60213;-70
2023/12/03 10:50:19;;;;;;;12.90;8.60;;;;;;;1.21;74.58;99647.55;108012;1257;71703;-70
2023/12/03 10:52:47;;;;;;;14.70;9.00;;;;;;;1.17;74.73;99651.98;107651;1257;71419;-66
2023/12/03 10:55:15;;;;;;;12.70;8.40;;;;;;;1.17;74.82;99647.10;107687;1256;72742;-69
2023/12/03 10:57:49;;;;;;;13.10;7.60;;;;;;;1.17;74.61;99670.45;107995;1255;60403;-68
2023/12/03 11:00:18;;;;;;;13.30;8.80;;;;;;;1.18;74.33;99679.61;107928;1257;60292;-71
2023/12/03 11:02:49;;;;;;;13.90;8.60;;;;;;;1.17;74.78;99695.21;107801;1257;73861;-70
2023/12/03 11:05:38;;;;;;;13.30;8.20;;;;;;;1.13;74.55;99684.81;107963;1255;71435;-70
2023/12/03 11:08:05;;;;;;;14.20;9.10;;;;;;;1.07;74.17;99704.33;107904;1255;72796;-69
2023/12/03 11:10:33;;;;;;;15.00;9.60;;;;;;;1.06;74.37;99695.92;108053;1256;63002;-70
2023/12/03 11:13:01;;;;;;;14.70;9.30;;;;;;;1.02;74.25;99712.52;108001;1257;60883;-69
2023/12/03 11:15:29;;;;;;;14.80;9.00;;;;;;;0.97;74.30;99714.57;107956;1256;72689;-69
2023/12/03 11:17:56;;;;;;;13.80;7.90;;;;;;;0.94;74.50;99718.91;107705;1257;72967;-70
2023/12/03 11:20:30;;;;;;;12.90;8.60;;;;;;;0.93;74.56;99725.71;107721;1257;72800;-70
2023/12/03 11:23:01;;;;;;;13.00;8.00;;;;;;;0.91;74.33;99733.89;107968;1256;61313;-71
2023/12/03 11:25:33;;;;;;;13.70;8.90;;;;;;;0.86;74.06;99729.13;107968;1256;60492;-70